Terminal Aerodrome Forecast
Issued by NWS

Current Version | Previous Version | Graphics & Text | Print | Product List | Glossary On
Versions: 1 2 3 4 5 6 7 8 9 10 11 12 13 14 15 16 17 18 19 20 21 22 23 24
000
FTUS41 KRNK 150228 AAE
TAFLWB
TAF AMD
KLWB 150228Z 1502/1524 00000KT P6SM -SHRA SCT020 OVC045
     FM150400 00000KT 4SM SHRA BR OVC020
     FM150900 00000KT 3SM BR OVC010
     FM151600 VRB03KT P6SM BKN040=

USA.gov is the U.S. government's official web portal to all federal, state and local government web resources and services.